Time;durP1;ratioP1;P1;durP2;ratioP2;P2;SDS_P1;SDS_P2;PMS_P1;PMS_P2;Temp;Humidity;BMP_temperature;BMP_pressure;BME280_temperature;BME280_humidity;BME280_pressure;Samples;Min_cycle;Max_cycle;Signal;HPM_P1;HPM_P2
2022/02/06 00:01:22;;;;;;;5.23;2.80;;;11.10;99.90;;;;;;4979216;28;20527;-63
2022/02/06 00:03:57;;;;;;;5.40;3.00;;;11.20;99.90;;;;;;4983503;28;20444;-65
2022/02/06 00:06:30;;;;;;;4.87;3.53;;;11.20;99.90;;;;;;4981585;28;20483;-68
2022/02/06 00:09:01;;;;;;;3.37;3.03;;;11.20;99.90;;;;;;4979811;28;20482;-63
2022/02/06 00:11:32;;;;;;;5.87;3.23;;;11.00;99.90;;;;;;4981731;28;20456;-60
2022/02/06 00:14:05;;;;;;;2.67;2.47;;;11.00;99.90;;;;;;4985756;28;20491;-64
2022/02/06 00:16:36;;;;;;;3.73;2.60;;;11.00;99.90;;;;;;4985878;28;20476;-66
2022/02/06 00:19:07;;;;;;;5.30;3.77;;;10.90;99.90;;;;;;4983004;28;20793;-65
2022/02/06 00:21:38;;;;;;;3.70;2.50;;;11.00;99.90;;;;;;4985302;28;20481;-61
2022/02/06 00:24:22;;;;;;;4.77;2.80;;;11.00;99.90;;;;;;4987503;28;20541;-63
2022/02/06 00:27:00;;;;;;;3.70;2.00;;;10.90;99.90;;;;;;4985736;28;20467;-64
2022/02/06 00:29:43;;;;;;;2.60;2.30;;;10.80;99.90;;;;;;4991106;28;20462;-62
2022/02/06 00:32:26;;;;;;;4.70;2.30;;;10.70;99.90;;;;;;4984122;28;20467;-64
2022/02/06 00:38:12;;;;;;;5.37;2.73;;;10.70;99.90;;;;;;4979603;28;20467;-63
2022/02/06 00:41:11;;;;;;;4.00;2.47;;;10.60;99.90;;;;;;4980788;28;20471;-63
2022/02/06 00:43:42;;;;;;;6.17;2.33;;;10.50;99.90;;;;;;4982804;28;20452;-62
2022/02/06 00:46:16;;;;;;;2.77;2.23;;;10.50;99.90;;;;;;4981881;28;20456;-61
2022/02/06 00:48:54;;;;;;;2.97;2.67;;;10.40;99.90;;;;;;4984304;28;20451;-63
2022/02/06 00:51:38;;;;;;;3.22;2.85;;;10.30;99.90;;;;;;4985629;28;20514;-63
2022/02/06 00:54:09;;;;;;;3.80;2.67;;;10.30;99.90;;;;;;4985029;28;20275;-63
2022/02/06 00:56:41;;;;;;;3.90;2.70;;;10.30;99.90;;;;;;4986519;28;20532;-63
2022/02/06 00:59:12;;;;;;;2.80;2.47;;;10.20;99.90;;;;;;4973375;28;20452;-63
2022/02/06 01:01:45;;;;;;;2.70;2.00;;;10.20;99.90;;;;;;4987846;28;20460;-63
2022/02/06 01:04:17;;;;;;;2.60;2.40;;;10.10;99.90;;;;;;4984859;28;20227;-63
2022/02/06 01:06:48;;;;;;;2.92;2.50;;;10.10;99.90;;;;;;4982592;28;20467;-63
2022/02/06 01:09:19;;;;;;;2.92;2.60;;;10.00;99.90;;;;;;4979713;28;20292;-62
2022/02/06 01:11:51;;;;;;;3.10;2.80;;;10.00;99.90;;;;;;4981685;28;20252;-63
2022/02/06 01:14:32;;;;;;;3.20;2.78;;;9.90;99.90;;;;;;4980539;28;20410;-63
2022/02/06 01:17:17;;;;;;;6.75;2.97;;;9.90;99.90;;;;;;4984835;28;20851;-63
2022/02/06 01:19:57;;;;;;;5.00;3.07;;;9.80;99.90;;;;;;4981366;28;20274;-63
2022/02/06 01:22:30;;;;;;;3.10;2.80;;;9.70;99.90;;;;;;4983473;28;20460;-62
2022/02/06 01:25:07;;;;;;;3.42;2.30;;;9.60;99.90;;;;;;4985488;28;20209;-61
2022/02/06 01:27:44;;;;;;;3.70;2.42;;;9.60;99.90;;;;;;4981720;28;20196;-62
2022/02/06 01:30:19;;;;;;;2.67;2.42;;;9.60;99.90;;;;;;4987714;28;20314;-63
2022/02/06 01:32:56;;;;;;;3.33;3.00;;;9.50;99.90;;;;;;4981222;28;20524;-63
2022/02/06 01:35:32;;;;;;;3.40;2.28;;;9.40;99.90;;;;;;4979144;28;20266;-63
2022/02/06 01:38:14;;;;;;;2.33;2.13;;;9.40;99.90;;;;;;4979480;28;20208;-62
2022/02/06 01:40:59;;;;;;;2.88;2.20;;;9.30;99.90;;;;;;4984919;28;20223;-62
2022/02/06 01:43:38;;;;;;;2.22;2.00;;;9.20;99.90;;;;;;4983008;28;20204;-63
2022/02/06 01:46:35;;;;;;;2.30;2.10;;;9.10;99.90;;;;;;4983757;28;20268;-63
2022/02/06 02:00:39;;;;;;;2.60;2.38;;;8.90;99.90;;;;;;4983634;28;20203;-61
2022/02/06 02:00:55;;;;;;;3.20;2.80;;;8.80;99.90;;;;;;4979541;28;20217;-63
2022/02/06 02:03:38;;;;;;;3.80;2.90;;;8.70;99.90;;;;;;4983758;28;20285;-60
2022/02/06 02:06:35;;;;;;;2.50;2.30;;;8.70;99.90;;;;;;4982116;28;20671;-61
2022/02/06 02:17:46;;;;;;;3.55;3.25;;;8.40;99.90;;;;;;4977531;28;20204;-60
2022/02/06 02:20:44;;;;;;;6.13;4.30;;;8.30;99.90;;;;;;4984153;28;20235;-63
2022/02/06 02:23:37;;;;;;;5.25;3.58;;;8.20;99.90;;;;;;4983898;28;20208;-64
2022/02/06 02:29:28;;;;;;;7.47;6.10;;;8.20;99.90;;;;;;4984196;28;20205;-60
2022/02/06 02:43:34;;;;;;;6.93;5.45;;;8.00;99.90;;;;;;4981408;28;20201;-62
2022/02/06 02:46:09;;;;;;;8.07;6.18;;;7.90;99.90;;;;;;4983180;28;20243;-61
2022/02/06 02:48:44;;;;;;;6.30;5.25;;;7.90;99.90;;;;;;4982647;28;20196;-72
2022/02/06 02:51:18;;;;;;;6.88;5.80;;;7.90;99.90;;;;;;4983396;28;20205;-60
2022/02/06 02:53:55;;;;;;;7.45;6.13;;;7.90;99.90;;;;;;4982782;28;20227;-57
2022/02/06 02:56:38;;;;;;;6.07;4.97;;;7.70;99.90;;;;;;4982135;28;20228;-60
2022/02/06 02:59:16;;;;;;;5.10;4.60;;;7.60;99.90;;;;;;4983204;28;20205;-62
2022/02/06 03:01:52;;;;;;;5.20;4.70;;;7.70;99.90;;;;;;4983240;28;20623;-60
2022/02/06 03:04:24;;;;;;;5.70;5.05;;;7.60;99.90;;;;;;4983694;28;20189;-61
2022/02/06 03:06:55;;;;;;;5.88;4.30;;;7.60;99.90;;;;;;4983386;28;20236;-60
2022/02/06 03:09:32;;;;;;;7.35;5.80;;;7.50;99.90;;;;;;4983645;28;20220;-60
2022/02/06 03:12:03;;;;;;;7.28;5.07;;;7.40;99.90;;;;;;4993780;28;20204;-60
2022/02/06 03:14:42;;;;;;;6.20;5.70;;;7.40;99.90;;;;;;4982956;28;20224;-60
2022/02/06 03:17:22;;;;;;;6.22;5.55;;;7.30;99.90;;;;;;4983834;28;20320;-61
2022/02/06 03:20:05;;;;;;;5.68;5.18;;;7.20;99.90;;;;;;4978368;28;20184;-61
2022/02/06 03:22:47;;;;;;;6.35;5.50;;;7.20;99.90;;;;;;4976046;28;20203;-61
2022/02/06 03:25:22;;;;;;;6.25;5.65;;;7.20;99.90;;;;;;4984898;28;20617;-62
2022/02/06 03:27:54;;;;;;;6.60;6.00;;;7.10;99.90;;;;;;4982548;28;20278;-65
2022/02/06 03:30:29;;;;;;;8.25;7.40;;;7.10;99.90;;;;;;4982239;28;20218;-62
2022/02/06 03:33:00;;;;;;;9.93;7.90;;;7.00;99.90;;;;;;4984683;28;20199;-61
2022/02/06 03:35:31;;;;;;;10.50;9.50;;;6.90;99.90;;;;;;4983835;28;20225;-60
2022/02/06 03:38:02;;;;;;;11.13;10.13;;;6.80;99.90;;;;;;4982778;28;20193;-60
2022/02/06 03:40:39;;;;;;;10.52;9.35;;;6.80;99.90;;;;;;4985263;28;20193;-60
2022/02/06 03:43:16;;;;;;;10.75;9.65;;;6.80;99.90;;;;;;4999186;28;20639;-60
2022/02/06 03:45:53;;;;;;;10.80;9.35;;;6.80;99.90;;;;;;4986269;28;20223;-60
2022/02/06 03:48:29;;;;;;;10.85;9.93;;;6.70;99.90;;;;;;4990447;28;20214;-60
2022/02/06 03:51:05;;;;;;;13.27;11.98;;;6.70;99.90;;;;;;4987268;28;20232;-61
2022/02/06 03:53:39;;;;;;;13.35;11.98;;;6.70;99.90;;;;;;4985378;28;20203;-61
2022/02/06 03:56:12;;;;;;;13.60;12.30;;;6.60;99.90;;;;;;4992176;28;20230;-61
2022/02/06 03:58:43;;;;;;;13.35;12.05;;;6.50;99.90;;;;;;4989557;28;20184;-60
2022/02/06 04:01:14;;;;;;;11.73;10.50;;;6.50;99.90;;;;;;4990286;28;20219;-60
2022/02/06 04:03:45;;;;;;;11.77;10.65;;;6.50;99.90;;;;;;4990188;28;20210;-60
2022/02/06 04:06:16;;;;;;;11.27;10.02;;;6.40;99.90;;;;;;4987451;28;20254;-60
2022/02/06 04:08:48;;;;;;;11.63;10.63;;;6.40;99.90;;;;;;4987911;28;20235;-59
2022/02/06 04:11:31;;;;;;;63.75;18.13;;;6.30;99.90;;;;;;4984088;28;20215;-60
2022/02/06 04:14:17;;;;;;;11.68;10.50;;;6.30;99.90;;;;;;4996192;28;20216;-60
2022/02/06 04:16:52;;;;;;;11.98;9.98;;;6.30;99.90;;;;;;4985910;28;20220;-62
2022/02/06 04:19:25;;;;;;;15.30;10.73;;;6.20;99.90;;;;;;4986340;28;20207;-60
2022/02/06 04:21:57;;;;;;;12.05;9.98;;;6.10;99.90;;;;;;4983298;28;20232;-60
2022/02/06 04:24:28;;;;;;;9.13;8.20;;;6.10;99.90;;;;;;4985866;28;20204;-60
2022/02/06 04:27:01;;;;;;;9.68;8.68;;;6.00;99.90;;;;;;4986581;28;20213;-59
2022/02/06 04:29:31;;;;;;;8.55;7.20;;;6.00;99.90;;;;;;4985317;28;20259;-59
2022/02/06 04:32:03;;;;;;;9.25;8.32;;;6.00;99.90;;;;;;4984865;28;20244;-60
2022/02/06 04:34:34;;;;;;;9.90;8.27;;;5.90;99.90;;;;;;4980524;28;20268;-59
2022/02/06 04:37:12;;;;;;;9.73;8.73;;;5.90;99.90;;;;;;4986579;28;20635;-60
2022/02/06 04:48:54;;;;;;;11.35;8.40;;;5.80;99.90;;;;;;4942005;29;20715;-59
2022/02/06 04:54:48;;;;;;;21.58;11.27;;;5.70;99.90;;;;;;4926163;29;20238;-60
2022/02/06 05:12:01;;;;;;;13.30;11.35;;;5.50;99.90;;;;;;4938356;29;20237;-60
2022/02/06 05:14:48;;;;;;;13.18;11.55;;;5.40;99.90;;;;;;4942763;29;20278;-61
2022/02/06 05:17:48;;;;;;;13.23;11.00;;;5.50;99.90;;;;;;4954305;29;20229;-61
2022/02/06 05:23:34;;;;;;;12.93;10.35;;;5.40;99.90;;;;;;4964088;28;20209;-61
2022/02/06 05:28:53;;;;;;;10.63;9.57;;;5.30;99.90;;;;;;4964700;28;20219;-61
2022/02/06 05:31:35;;;;;;;12.38;9.80;;;5.30;99.90;;;;;;4962138;28;20207;-61
2022/02/06 05:34:11;;;;;;;11.82;10.70;;;5.30;99.90;;;;;;4960555;28;20607;-61
2022/02/06 05:36:42;;;;;;;12.05;10.77;;;5.30;99.90;;;;;;4969214;28;20218;-61
2022/02/06 05:39:12;;;;;;;13.95;11.40;;;5.20;99.90;;;;;;4965389;28;20307;-61
2022/02/06 05:41:44;;;;;;;11.98;10.77;;;5.10;99.90;;;;;;4959345;28;20203;-60
2022/02/06 05:44:15;;;;;;;12.68;10.52;;;5.00;99.90;;;;;;4965925;28;20212;-60
2022/02/06 05:46:46;;;;;;;12.05;10.75;;;5.00;99.90;;;;;;4960012;28;20208;-60
2022/02/06 05:49:19;;;;;;;14.27;10.82;;;4.90;99.90;;;;;;4964495;28;20248;-60
2022/02/06 05:51:50;;;;;;;12.68;11.48;;;4.80;99.90;;;;;;4961481;28;20609;-60
2022/02/06 05:54:21;;;;;;;13.63;10.70;;;4.90;99.90;;;;;;4957423;28;20239;-60
2022/02/06 05:56:52;;;;;;;12.80;11.48;;;4.80;99.90;;;;;;4957097;29;20296;-61
2022/02/06 05:59:29;;;;;;;12.20;10.95;;;4.70;99.90;;;;;;4954637;29;20642;-60
2022/02/06 06:02:00;;;;;;;14.90;13.30;;;4.70;99.90;;;;;;4962528;28;20243;-60
2022/02/06 06:04:32;;;;;;;13.52;11.38;;;4.60;99.90;;;;;;4962753;28;20209;-61
2022/02/06 06:07:05;;;;;;;13.98;12.68;;;4.50;99.90;;;;;;4976004;28;20558;-60
2022/02/06 06:09:36;;;;;;;14.38;12.98;;;4.50;99.90;;;;;;4981354;28;20208;-61
2022/02/06 06:12:14;;;;;;;19.88;17.10;;;4.50;99.90;;;;;;4980263;28;20204;-62
2022/02/06 06:14:47;;;;;;;22.60;16.60;;;4.50;99.90;;;;;;4975143;28;20251;-62
2022/02/06 06:17:21;;;;;;;18.83;15.38;;;4.50;99.90;;;;;;4975331;28;20224;-61
2022/02/06 06:19:56;;;;;;;15.98;14.15;;;4.50;99.90;;;;;;4981048;28;20200;-60
2022/02/06 06:22:31;;;;;;;16.63;14.90;;;4.50;99.90;;;;;;4978338;28;20238;-61
2022/02/06 06:25:03;;;;;;;15.93;13.57;;;4.50;99.90;;;;;;4977130;28;20188;-61
2022/02/06 06:27:34;;;;;;;14.05;12.63;;;4.40;99.90;;;;;;4986529;28;20205;-60
2022/02/06 06:30:06;;;;;;;14.00;12.65;;;4.40;99.90;;;;;;4981556;28;20224;-61
2022/02/06 06:32:39;;;;;;;17.77;13.48;;;4.40;99.90;;;;;;4981566;28;20235;-61
2022/02/06 06:35:13;;;;;;;17.95;14.15;;;4.50;99.90;;;;;;4981184;28;20256;-61
2022/02/06 06:37:44;;;;;;;14.38;12.95;;;4.40;99.90;;;;;;4980360;28;20212;-60
2022/02/06 06:40:15;;;;;;;16.30;13.13;;;4.40;99.90;;;;;;4978536;28;20200;-61
2022/02/06 06:42:46;;;;;;;15.18;12.70;;;4.40;99.90;;;;;;4977908;28;20255;-61
2022/02/06 06:45:18;;;;;;;16.15;13.80;;;4.30;99.90;;;;;;4982209;28;20201;-61
2022/02/06 06:47:53;;;;;;;14.23;12.30;;;4.30;99.90;;;;;;4980386;28;20235;-61
2022/02/06 06:50:32;;;;;;;14.75;11.75;;;4.30;99.90;;;;;;4976361;28;20218;-61
2022/02/06 06:53:06;;;;;;;15.98;12.35;;;4.30;99.90;;;;;;4980585;28;20215;-60
2022/02/06 06:55:38;;;;;;;13.20;11.98;;;4.20;99.90;;;;;;4982683;28;20208;-61
2022/02/06 06:58:14;;;;;;;14.82;12.85;;;4.20;99.90;;;;;;4979434;28;20232;-61
2022/02/06 07:00:55;;;;;;;13.35;11.15;;;4.10;99.90;;;;;;4978637;28;20218;-60
2022/02/06 07:03:27;;;;;;;12.20;10.95;;;4.20;99.90;;;;;;4980914;28;20201;-60
2022/02/06 07:06:01;;;;;;;12.40;11.20;;;4.20;99.90;;;;;;4976446;28;20228;-60
2022/02/06 07:08:42;;;;;;;14.50;12.32;;;4.20;99.90;;;;;;4994146;28;20215;-60
2022/02/06 07:11:14;;;;;;;13.48;11.48;;;4.20;99.90;;;;;;4979181;28;20207;-60
2022/02/06 07:13:51;;;;;;;12.38;11.18;;;4.20;99.90;;;;;;4983152;28;20193;-61
2022/02/06 07:16:25;;;;;;;12.85;11.55;;;4.30;99.90;;;;;;4982010;28;20691;-60
2022/02/06 07:18:57;;;;;;;12.70;11.40;;;4.30;99.90;;;;;;4985231;28;20613;-61
2022/02/06 07:24:40;;;;;;;12.48;11.27;;;4.20;99.90;;;;;;4987414;28;20281;-61
2022/02/06 07:27:32;;;;;;;13.05;11.18;;;4.20;99.90;;;;;;4983819;28;20210;-61
2022/02/06 07:30:06;;;;;;;13.85;11.82;;;4.20;99.90;;;;;;4980264;28;20200;-60
2022/02/06 07:32:40;;;;;;;14.98;11.60;;;4.10;99.90;;;;;;4986197;28;20195;-60
2022/02/06 07:35:13;;;;;;;14.20;12.73;;;4.20;99.90;;;;;;4983316;28;20356;-60
2022/02/06 07:37:54;;;;;;;15.82;12.68;;;4.20;99.90;;;;;;4981033;28;20374;-60
2022/02/06 07:40:31;;;;;;;13.43;11.95;;;4.20;99.90;;;;;;4982243;28;20255;-61
2022/02/06 07:43:02;;;;;;;17.27;13.35;;;4.20;99.90;;;;;;4986788;28;20238;-60
2022/02/06 07:45:36;;;;;;;13.80;11.88;;;4.20;99.90;;;;;;4988969;28;20208;-60
2022/02/06 07:48:13;;;;;;;12.95;11.57;;;4.20;99.90;;;;;;4979004;28;20220;-61
2022/02/06 07:50:45;;;;;;;16.85;12.57;;;4.20;99.90;;;;;;4982175;28;20291;-59
2022/02/06 07:53:18;;;;;;;12.32;10.07;;;4.20;99.90;;;;;;4982280;28;20280;-59
2022/02/06 07:55:49;;;;;;;12.75;10.93;;;4.20;99.90;;;;;;4982605;28;20216;-59
2022/02/06 07:58:20;;;;;;;13.40;10.98;;;4.20;99.90;;;;;;4982691;28;20232;-60
2022/02/06 08:00:50;;;;;;;12.50;11.20;;;4.20;99.90;;;;;;4990228;28;20212;-59
2022/02/06 08:03:24;;;;;;;11.90;10.70;;;4.20;99.90;;;;;;4990148;28;20232;-59
2022/02/06 08:05:58;;;;;;;12.65;11.45;;;4.20;99.90;;;;;;4982817;28;20711;-59
2022/02/06 08:08:33;;;;;;;11.13;10.00;;;4.10;99.90;;;;;;4982603;28;20192;-61
2022/02/06 08:11:12;;;;;;;12.18;10.55;;;4.10;99.90;;;;;;4980373;28;20212;-61
2022/02/06 08:13:46;;;;;;;11.68;10.48;;;4.10;99.90;;;;;;4969019;28;20259;-61
2022/02/06 08:16:16;;;;;;;12.07;10.20;;;4.10;99.90;;;;;;4982563;28;20224;-60
2022/02/06 08:18:47;;;;;;;11.52;10.32;;;4.10;99.90;;;;;;4983852;28;20239;-60
2022/02/06 08:21:19;;;;;;;11.07;10.07;;;4.10;99.90;;;;;;4981080;28;20204;-60
2022/02/06 08:23:51;;;;;;;12.90;10.75;;;4.00;99.90;;;;;;4985259;28;20211;-60
2022/02/06 08:26:25;;;;;;;12.98;10.80;;;4.00;99.90;;;;;;4987507;28;20216;-59
2022/02/06 08:29:00;;;;;;;11.88;10.27;;;4.00;99.90;;;;;;4986132;28;20204;-59
2022/02/06 08:31:31;;;;;;;12.32;11.13;;;4.00;99.90;;;;;;4987508;28;20236;-59
2022/02/06 08:34:01;;;;;;;11.98;10.40;;;3.90;99.90;;;;;;4986158;28;20466;-59
2022/02/06 08:36:32;;;;;;;12.23;10.90;;;3.90;99.90;;;;;;4984801;28;20201;-59
2022/02/06 08:39:09;;;;;;;11.43;9.40;;;3.80;99.90;;;;;;4993231;28;20211;-59
2022/02/06 08:41:40;;;;;;;12.98;11.68;;;3.70;99.90;;;;;;4984731;28;20251;-60
2022/02/06 08:44:11;;;;;;;11.55;10.20;;;3.80;99.90;;;;;;4987367;28;20201;-59
2022/02/06 08:46:41;;;;;;;11.65;10.55;;;3.70;99.90;;;;;;4990502;28;20602;-60
2022/02/06 08:49:12;;;;;;;14.35;9.85;;;3.70;99.90;;;;;;4987484;28;20212;-60
2022/02/06 08:51:43;;;;;;;12.40;10.00;;;3.50;99.90;;;;;;4973026;28;20203;-60
2022/02/06 08:54:17;;;;;;;11.13;9.43;;;3.50;99.90;;;;;;4985816;28;20208;-59
2022/02/06 08:57:14;;;;;;;9.73;8.82;;;3.50;99.90;;;;;;4983110;28;20216;-59
2022/02/06 08:59:45;;;;;;;13.77;10.65;;;3.40;99.90;;;;;;4985163;28;20235;-59
2022/02/06 09:02:16;;;;;;;10.32;9.18;;;3.40;99.90;;;;;;4991274;28;20211;-59
2022/02/06 09:04:47;;;;;;;11.23;9.85;;;3.40;99.90;;;;;;4987059;28;20215;-59
2022/02/06 09:07:18;;;;;;;10.05;9.27;;;3.40;99.90;;;;;;4992723;28;20235;-59
2022/02/06 09:09:57;;;;;;;10.90;9.88;;;3.50;99.90;;;;;;4986154;28;20193;-59
2022/02/06 09:12:28;;;;;;;10.07;9.07;;;3.40;99.90;;;;;;4985879;28;20189;-59
2022/02/06 09:14:59;;;;;;;11.98;9.98;;;3.30;99.90;;;;;;4985660;28;20203;-59
2022/02/06 09:17:30;;;;;;;11.10;10.20;;;3.30;99.90;;;;;;4985356;28;20291;-59
2022/02/06 09:20:01;;;;;;;11.15;9.65;;;3.30;99.90;;;;;;4987963;28;20239;-59
2022/02/06 09:22:34;;;;;;;9.43;8.63;;;3.20;99.90;;;;;;4981109;28;20263;-59
2022/02/06 09:25:08;;;;;;;11.15;9.70;;;3.30;99.90;;;;;;4985611;28;20197;-59
2022/02/06 09:27:38;;;;;;;13.80;10.23;;;3.30;99.90;;;;;;4990662;28;20204;-59
2022/02/06 09:30:12;;;;;;;11.45;9.90;;;3.30;99.90;;;;;;4982067;28;20204;-59
2022/02/06 09:35:13;;;;;;;11.93;10.13;;;3.20;99.90;;;;;;4985756;28;20223;-59
2022/02/06 09:37:44;;;;;;;12.93;9.63;;;3.00;99.90;;;;;;4983229;28;20189;-59
2022/02/06 09:40:19;;;;;;;12.02;9.30;;;3.00;99.90;;;;;;4985555;28;20217;-59
2022/02/06 09:42:53;;;;;;;10.75;9.65;;;3.00;99.90;;;;;;4980448;28;20210;-59
2022/02/06 09:45:28;;;;;;;11.20;10.05;;;2.90;99.90;;;;;;4991120;28;20201;-59
2022/02/06 09:48:01;;;;;;;9.88;8.88;;;2.90;99.90;;;;;;4984615;28;20222;-59
2022/02/06 09:50:32;;;;;;;13.23;10.27;;;2.90;99.90;;;;;;4983392;28;20216;-59
2022/02/06 09:53:03;;;;;;;11.32;10.18;;;2.90;99.90;;;;;;4985498;28;20204;-59
2022/02/06 09:55:36;;;;;;;17.00;10.70;;;2.90;99.90;;;;;;4987294;28;20199;-59
2022/02/06 09:58:29;;;;;;;12.50;11.02;;;2.80;99.90;;;;;;4988423;28;20204;-59
2022/02/06 10:01:00;;;;;;;12.82;11.07;;;2.80;99.90;;;;;;4985621;28;20214;-59
2022/02/06 10:03:38;;;;;;;11.48;10.27;;;2.90;99.90;;;;;;4982147;28;20201;-59
2022/02/06 10:06:13;;;;;;;10.15;9.25;;;2.80;99.90;;;;;;4991349;28;20232;-59
2022/02/06 10:08:46;;;;;;;11.15;9.70;;;2.80;99.90;;;;;;4984546;28;20212;-59
2022/02/06 10:11:20;;;;;;;12.23;10.02;;;2.70;99.90;;;;;;4988191;28;20208;-58
2022/02/06 10:13:55;;;;;;;11.43;10.00;;;2.60;99.90;;;;;;4984025;28;20207;-59
2022/02/06 10:16:26;;;;;;;11.90;10.73;;;2.60;99.90;;;;;;4988483;28;20306;-58
2022/02/06 10:18:57;;;;;;;14.05;10.02;;;2.60;99.90;;;;;;4978428;28;20626;-59
2022/02/06 10:21:34;;;;;;;12.48;9.60;;;2.70;99.90;;;;;;4984967;28;20208;-59
2022/02/06 10:24:12;;;;;;;11.45;10.35;;;2.70;99.90;;;;;;4985063;28;20208;-58
2022/02/06 10:26:53;;;;;;;11.05;9.90;;;2.50;99.90;;;;;;4977982;28;20351;-58
2022/02/06 10:29:31;;;;;;;11.05;9.95;;;2.60;99.90;;;;;;4987897;28;20199;-58
2022/02/06 10:32:04;;;;;;;14.00;10.98;;;2.70;99.90;;;;;;4995598;28;20218;-59
2022/02/06 10:34:38;;;;;;;10.55;9.45;;;2.60;99.90;;;;;;4986460;28;20263;-58
2022/02/06 10:37:12;;;;;;;14.40;11.48;;;2.50;99.90;;;;;;4979615;28;20197;-59
2022/02/06 10:39:54;;;;;;;12.63;10.35;;;2.60;99.90;;;;;;4985945;28;20228;-59
2022/02/06 10:42:28;;;;;;;11.98;10.55;;;2.50;99.90;;;;;;4983372;28;20215;-58
2022/02/06 10:45:16;;;;;;;10.88;9.70;;;2.40;99.90;;;;;;4974178;28;20205;-59
2022/02/06 10:47:48;;;;;;;11.60;9.85;;;2.50;99.90;;;;;;4981302;28;20185;-59
2022/02/06 10:50:20;;;;;;;11.80;10.50;;;2.50;99.90;;;;;;4988914;28;20288;-59
2022/02/06 10:52:51;;;;;;;11.80;10.65;;;2.40;99.90;;;;;;4979088;28;20204;-59
2022/02/06 10:55:24;;;;;;;11.90;9.90;;;2.50;99.90;;;;;;4984898;28;20219;-59
2022/02/06 10:58:01;;;;;;;13.68;10.82;;;2.50;99.90;;;;;;4977143;28;20209;-59
2022/02/06 11:00:34;;;;;;;12.95;9.57;;;2.40;99.90;;;;;;4987508;28;20228;-59
2022/02/06 11:03:22;;;;;;;12.05;10.00;;;2.30;99.90;;;;;;4986851;28;20205;-59
2022/02/06 11:06:05;;;;;;;11.75;9.15;;;2.20;99.90;;;;;;4983591;28;20228;-59
2022/02/06 11:08:38;;;;;;;10.43;9.30;;;2.10;99.90;;;;;;4983228;28;20204;-59
2022/02/06 11:11:12;;;;;;;10.65;9.48;;;2.10;99.90;;;;;;4988525;28;20270;-59
2022/02/06 11:13:44;;;;;;;13.55;9.55;;;2.10;99.90;;;;;;4980940;28;20268;-59
2022/02/06 11:16:19;;;;;;;11.13;9.45;;;2.20;99.90;;;;;;4981891;28;20211;-59
2022/02/06 11:18:51;;;;;;;11.82;10.00;;;2.20;99.90;;;;;;4983253;28;20208;-60
2022/02/06 11:21:24;;;;;;;11.32;10.00;;;2.20;99.90;;;;;;4983712;28;20220;-59
2022/02/06 11:23:56;;;;;;;10.18;8.10;;;2.20;99.90;;;;;;4982422;28;20205;-58
2022/02/06 11:26:28;;;;;;;12.88;9.82;;;2.10;99.90;;;;;;4984265;28;20200;-59
2022/02/06 11:29:02;;;;;;;11.60;10.23;;;2.00;99.90;;;;;;4981774;28;20213;-59
2022/02/06 11:31:33;;;;;;;12.02;10.82;;;2.10;99.90;;;;;;4992373;28;20227;-58
2022/02/06 11:34:04;;;;;;;9.98;8.98;;;2.00;99.90;;;;;;4980849;28;20201;-58
2022/02/06 11:45:32;;;;;;;12.13;10.05;;;1.90;99.90;;;;;;4981622;28;20192;-60
2022/02/06 11:48:06;;;;;;;14.68;10.27;;;2.00;99.90;;;;;;4982714;28;20215;-58
2022/02/06 11:50:37;;;;;;;10.73;8.45;;;2.00;99.90;;;;;;4974654;28;20641;-57
2022/02/06 11:53:09;;;;;;;10.93;9.43;;;1.90;99.90;;;;;;4982012;28;20219;-58
2022/02/06 11:55:43;;;;;;;9.93;8.93;;;1.90;99.90;;;;;;4982191;28;20272;-59
2022/02/06 11:58:28;;;;;;;13.65;9.70;;;1.70;99.90;;;;;;4984084;28;20204;-59
2022/02/06 12:01:26;;;;;;;10.57;8.82;;;1.80;99.90;;;;;;4987264;28;20224;-59
2022/02/06 12:04:00;;;;;;;9.93;8.85;;;1.80;99.90;;;;;;4991309;28;20207;-59
2022/02/06 12:06:50;;;;;;;10.45;9.02;;;1.70;99.90;;;;;;4986845;28;20547;-59
2022/02/06 12:09:23;;;;;;;11.10;9.95;;;1.80;99.90;;;;;;4986592;28;20203;-59
2022/02/06 12:12:12;;;;;;;11.70;9.65;;;1.80;99.90;;;;;;4986434;28;20375;-57
2022/02/06 12:14:51;;;;;;;10.82;8.60;;;1.70;99.90;;;;;;4994891;28;20204;-59
2022/02/06 12:17:36;;;;;;;13.35;9.05;;;1.60;99.90;;;;;;4987132;28;20291;-57
2022/02/06 12:20:12;;;;;;;11.07;9.50;;;1.70;99.90;;;;;;4973814;28;20593;-59
2022/02/06 12:22:45;;;;;;;11.93;10.02;;;1.70;99.90;;;;;;4987429;28;20195;-58
2022/02/06 12:25:25;;;;;;;11.38;9.70;;;1.70;99.90;;;;;;4987142;28;20287;-58
2022/02/06 12:28:27;;;;;;;12.52;9.75;;;1.70;99.90;;;;;;4977603;28;20213;-58
2022/02/06 12:31:26;;;;;;;10.70;9.60;;;1.70;99.90;;;;;;4985095;28;20286;-58
2022/02/06 12:34:10;;;;;;;13.45;10.05;;;1.60;99.90;;;;;;4986786;28;20211;-57
2022/02/06 12:39:42;;;;;;;13.45;10.60;;;1.60;99.90;;;;;;4907972;29;20195;-58
2022/02/06 12:42:17;;;;;;;17.05;11.93;;;1.50;99.90;;;;;;4905241;29;20207;-58
2022/02/06 12:44:49;;;;;;;18.98;11.10;;;1.50;99.90;;;;;;4914753;29;20693;-57
2022/02/06 12:47:20;;;;;;;17.00;10.90;;;1.50;99.90;;;;;;4902533;29;20195;-58
2022/02/06 12:49:52;;;;;;;11.55;9.27;;;1.50;99.90;;;;;;4892554;29;20350;-59
2022/02/06 12:52:23;;;;;;;17.25;11.55;;;1.40;99.90;;;;;;4901141;29;20232;-57
2022/02/06 12:54:54;;;;;;;14.65;10.25;;;1.40;99.90;;;;;;4902206;29;20207;-58
2022/02/06 12:57:25;;;;;;;14.80;10.63;;;1.40;99.90;;;;;;4895238;29;20214;-59
2022/02/06 12:59:56;;;;;;;12.85;9.70;;;1.50;99.90;;;;;;4905281;29;20663;-57
2022/02/06 13:02:34;;;;;;;12.68;9.10;;;1.60;99.90;;;;;;4906206;29;20215;-58
2022/02/06 13:05:14;;;;;;;12.90;9.25;;;1.50;99.90;;;;;;4896685;29;20226;-59
2022/02/06 13:07:46;;;;;;;11.25;9.70;;;1.40;99.90;;;;;;4906572;29;20250;-57
2022/02/06 13:10:17;;;;;;;12.98;9.85;;;1.40;99.90;;;;;;4907769;29;20200;-58
2022/02/06 13:12:53;;;;;;;18.50;10.45;;;1.50;99.90;;;;;;4904741;28;20255;-57
2022/02/06 13:15:46;;;;;;;12.85;10.55;;;1.40;99.90;;;;;;4979136;28;20208;-59
2022/02/06 13:18:32;;;;;;;10.88;9.52;;;1.50;99.90;;;;;;4985925;28;20205;-58
2022/02/06 13:21:19;;;;;;;12.65;10.10;;;1.50;99.90;;;;;;4988300;28;20227;-59
2022/02/06 13:24:15;;;;;;;13.40;9.95;;;1.50;99.90;;;;;;4984964;28;20236;-59
2022/02/06 13:26:57;;;;;;;17.65;10.45;;;1.50;99.90;;;;;;4983838;28;20211;-59
2022/02/06 13:29:38;;;;;;;21.88;11.98;;;1.70;99.90;;;;;;4986548;28;20210;-56
2022/02/06 13:32:27;;;;;;;16.05;10.35;;;1.70;99.90;;;;;;4984540;28;20199;-57
2022/02/06 13:35:17;;;;;;;21.40;11.25;;;1.90;99.90;;;;;;4986690;28;20200;-59
2022/02/06 13:37:58;;;;;;;34.97;14.13;;;1.80;99.90;;;;;;4992338;28;20211;-59
2022/02/06 13:40:32;;;;;;;23.15;12.55;;;1.90;99.90;;;;;;4985181;28;20224;-59
2022/02/06 13:43:06;;;;;;;34.80;12.52;;;1.90;99.90;;;;;;4984836;28;20236;-57
2022/02/06 13:45:41;;;;;;;43.38;14.10;;;1.90;99.90;;;;;;4984118;28;20200;-56
2022/02/06 13:48:14;;;;;;;54.95;13.75;;;1.90;99.90;;;;;;4986050;28;20222;-59
2022/02/06 13:50:50;;;;;;;62.38;13.38;;;1.90;99.90;;;;;;4985188;28;20204;-58
2022/02/06 13:53:24;;;;;;;40.25;13.10;;;2.00;99.90;;;;;;4987141;28;20246;-59
2022/02/06 13:56:01;;;;;;;18.00;12.63;;;2.00;99.90;;;;;;4985991;28;20207;-52
2022/02/06 13:58:34;;;;;;;22.85;13.40;;;1.90;99.90;;;;;;4988216;28;20263;-57
2022/02/06 14:01:07;;;;;;;44.30;13.27;;;1.90;99.90;;;;;;4983956;28;20258;-58
2022/02/06 14:03:48;;;;;;;49.08;12.80;;;1.90;99.90;;;;;;4985022;28;20209;-58
2022/02/06 14:06:23;;;;;;;21.58;11.57;;;1.90;99.90;;;;;;4983368;28;20271;-58
2022/02/06 14:09:22;;;;;;;11.20;10.02;;;1.90;99.90;;;;;;4990125;28;20228;-59
2022/02/06 14:12:01;;;;;;;38.42;12.50;;;1.80;99.90;;;;;;4983962;28;20203;-57
2022/02/06 14:14:33;;;;;;;1737.03;331.25;;;1.80;99.90;;;;;;4984020;28;20532;-59
2022/02/06 14:17:26;;;;;;;1999.90;525.08;;;1.80;99.90;;;;;;4985118;28;20200;-57
2022/02/06 14:19:58;;;;;;;1999.90;613.08;;;1.80;99.90;;;;;;4988756;28;20197;-57
2022/02/06 14:22:35;;;;;;;36.38;14.65;;;2.00;99.90;;;;;;4989744;28;20245;-59
2022/02/06 14:25:11;;;;;;;25.67;12.27;;;2.00;99.90;;;;;;4984482;28;20208;-60
2022/02/06 14:27:44;;;;;;;21.35;12.27;;;2.00;99.90;;;;;;4983851;28;20284;-55
2022/02/06 14:30:21;;;;;;;38.53;11.90;;;1.90;99.90;;;;;;4987643;28;20641;-57
2022/02/06 14:33:06;;;;;;;24.27;11.68;;;1.90;99.90;;;;;;4987683;28;20200;-59
2022/02/06 14:35:41;;;;;;;13.63;10.20;;;2.00;99.90;;;;;;4980750;28;20204;-57
2022/02/06 14:38:19;;;;;;;32.35;11.27;;;1.90;99.90;;;;;;4985419;28;20218;-57
2022/02/06 14:41:04;;;;;;;38.10;11.95;;;1.80;99.90;;;;;;4989344;28;20208;-58
2022/02/06 14:43:37;;;;;;;65.75;13.95;;;1.90;99.90;;;;;;4983211;28;20208;-58
2022/02/06 14:46:10;;;;;;;52.20;12.48;;;1.90;99.90;;;;;;4976959;28;20246;-56
2022/02/06 14:48:41;;;;;;;23.75;10.80;;;1.90;99.90;;;;;;4979457;28;20226;-59
2022/02/06 14:51:20;;;;;;;43.08;11.23;;;1.80;99.90;;;;;;4984181;28;20204;-60
2022/02/06 14:53:58;;;;;;;42.08;10.90;;;1.90;99.90;;;;;;4986584;28;20198;-59